Time;durP1;ratioP1;P1;durP2;ratioP2;P2;SDS_P1;SDS_P2;PMS_P1;PMS_P2;Temp;Humidity;BMP_temperature;BMP_pressure;BME280_temperature;BME280_humidity;BME280_pressure;Samples;Min_cycle;Max_cycle;Signal;HPM_P1;HPM_P2
2020/12/16 00:01:02;;;;;;;49.78;32.58;;;10.90;99.90;;;;;;5064113;28;20231;-81
2020/12/16 00:03:28;;;;;;;56.10;36.10;;;10.90;99.90;;;;;;5063032;28;20203;-81
2020/12/16 00:05:55;;;;;;;51.45;35.85;;;10.90;99.90;;;;;;5063090;28;20649;-81
2020/12/16 00:08:22;;;;;;;62.60;39.20;;;10.60;99.90;;;;;;5063078;28;20269;-81
2020/12/16 00:10:49;;;;;;;50.83;34.17;;;10.80;99.90;;;;;;5063034;28;20598;-81
2020/12/16 00:13:15;;;;;;;47.88;33.60;;;10.80;99.90;;;;;;5062793;28;20691;-81
2020/12/16 00:15:44;;;;;;;52.45;36.55;;;10.80;99.90;;;;;;5063294;28;20206;-81
2020/12/16 00:18:12;;;;;;;49.50;34.15;;;10.90;99.90;;;;;;5063434;28;20208;-81
2020/12/16 00:20:39;;;;;;;52.10;36.17;;;10.80;99.90;;;;;;5064242;28;20294;-80
2020/12/16 00:23:05;;;;;;;50.03;30.92;;;10.80;99.90;;;;;;5064357;28;20576;-80
2020/12/16 00:25:33;;;;;;;51.33;37.05;;;10.90;99.90;;;;;;5062439;28;20199;-81
2020/12/16 00:28:00;;;;;;;52.97;36.08;;;10.90;99.90;;;;;;5062630;28;20206;-82
2020/12/16 00:30:26;;;;;;;50.33;33.97;;;10.90;99.90;;;;;;5062050;28;20239;-81
2020/12/16 00:32:53;;;;;;;52.00;34.47;;;10.90;99.90;;;;;;5061871;28;20199;-80
2020/12/16 00:35:19;;;;;;;57.60;35.75;;;10.80;99.90;;;;;;5061491;28;20204;-80
2020/12/16 00:37:46;;;;;;;52.22;34.67;;;10.80;99.90;;;;;;5061860;28;20204;-81
2020/12/16 00:40:16;;;;;;;54.80;37.78;;;10.90;99.90;;;;;;5062392;28;20235;-80
2020/12/16 00:42:48;;;;;;;57.05;38.60;;;10.80;99.90;;;;;;5062184;28;20211;-79
2020/12/16 00:45:15;;;;;;;54.55;37.10;;;10.90;99.90;;;;;;5061568;28;20199;-80
2020/12/16 00:47:41;;;;;;;48.97;36.38;;;10.90;99.90;;;;;;5063188;28;20203;-81
2020/12/16 00:50:10;;;;;;;51.90;36.85;;;10.90;99.90;;;;;;5077213;28;20286;-80
2020/12/16 00:52:37;;;;;;;52.75;35.67;;;10.90;99.90;;;;;;5077612;28;20210;-80
2020/12/16 00:55:04;;;;;;;56.88;37.65;;;11.00;99.90;;;;;;5077074;28;20187;-78
2020/12/16 00:57:33;;;;;;;45.78;31.60;;;10.90;99.90;;;;;;5077459;28;20198;-79
2020/12/16 01:00:01;;;;;;;42.92;30.25;;;10.80;99.90;;;;;;5078650;28;20216;-80
2020/12/16 01:02:27;;;;;;;44.08;32.00;;;10.90;99.90;;;;;;5078867;28;20187;-81
2020/12/16 01:04:55;;;;;;;44.40;32.25;;;10.90;99.90;;;;;;5078877;28;20211;-79
2020/12/16 01:07:21;;;;;;;44.83;31.83;;;10.90;99.90;;;;;;5079018;28;20223;-80
2020/12/16 01:09:48;;;;;;;46.35;32.53;;;11.00;99.90;;;;;;5078422;28;20219;-81
2020/12/16 01:12:14;;;;;;;50.05;34.65;;;10.90;99.90;;;;;;5078778;28;20192;-79
2020/12/16 01:14:41;;;;;;;52.83;35.78;;;10.80;99.90;;;;;;5078455;28;20191;-80
2020/12/16 01:17:11;;;;;;;44.58;31.65;;;10.80;99.90;;;;;;5078290;28;20188;-80
2020/12/16 01:19:38;;;;;;;50.17;33.35;;;10.80;99.90;;;;;;5074292;28;20211;-80
2020/12/16 01:22:04;;;;;;;45.03;33.45;;;10.80;99.90;;;;;;5070634;28;20204;-78
2020/12/16 01:24:31;;;;;;;46.67;32.35;;;10.90;99.90;;;;;;5068325;28;20212;-78
2020/12/16 01:26:57;;;;;;;50.13;34.15;;;10.90;99.90;;;;;;5071518;28;20191;-78
2020/12/16 01:29:24;;;;;;;51.15;34.50;;;10.90;99.90;;;;;;5071783;28;20263;-78
2020/12/16 01:31:51;;;;;;;45.28;32.33;;;10.80;99.90;;;;;;5073195;28;20210;-80
2020/12/16 01:34:19;;;;;;;44.47;31.95;;;10.70;99.90;;;;;;5074238;28;20230;-80
2020/12/16 01:36:48;;;;;;;50.53;33.97;;;10.80;99.90;;;;;;5073375;28;20210;-81
2020/12/16 01:39:16;;;;;;;51.25;34.83;;;10.70;99.90;;;;;;5065745;28;20273;-80
2020/12/16 01:41:44;;;;;;;50.10;32.70;;;10.70;99.90;;;;;;5065701;28;20325;-79
2020/12/16 01:44:13;;;;;;;46.80;32.83;;;10.70;99.90;;;;;;5065108;28;20215;-81
2020/12/16 01:46:50;;;;;;;43.30;30.75;;;10.80;99.90;;;;;;5065260;28;20203;-81
2020/12/16 01:49:16;;;;;;;46.45;32.05;;;10.70;99.90;;;;;;5062154;28;20238;-80
2020/12/16 01:51:44;;;;;;;49.97;34.15;;;10.70;99.90;;;;;;5062915;28;20215;-81
2020/12/16 01:54:14;;;;;;;41.03;29.98;;;10.70;99.90;;;;;;5062139;28;20738;-80
2020/12/16 01:56:42;;;;;;;37.30;27.48;;;10.70;99.90;;;;;;5062095;28;20192;-81
2020/12/16 01:59:12;;;;;;;39.45;27.20;;;10.70;99.90;;;;;;5061474;28;20230;-81
2020/12/16 02:01:42;;;;;;;40.15;29.17;;;10.70;99.90;;;;;;5061089;28;20228;-80
2020/12/16 02:04:11;;;;;;;36.22;26.23;;;10.60;99.90;;;;;;5060488;28;20510;-79
2020/12/16 02:06:41;;;;;;;39.17;28.67;;;10.70;99.90;;;;;;5060918;28;20212;-81
2020/12/16 02:09:10;;;;;;;36.00;26.63;;;10.70;99.90;;;;;;5064049;28;20227;-79
2020/12/16 02:11:39;;;;;;;39.50;27.25;;;10.70;99.90;;;;;;5065582;28;20212;-78
2020/12/16 02:14:07;;;;;;;40.67;26.80;;;10.70;99.90;;;;;;5065271;28;20208;-79
2020/12/16 02:16:35;;;;;;;41.05;25.08;;;10.70;99.90;;;;;;5064738;28;20200;-79
2020/12/16 02:19:01;;;;;;;35.83;24.65;;;10.60;99.90;;;;;;5064126;28;20584;-79
2020/12/16 02:21:29;;;;;;;38.88;28.52;;;10.70;99.90;;;;;;5063958;28;20230;-80
2020/12/16 02:24:04;;;;;;;33.08;24.55;;;10.70;99.90;;;;;;5065434;28;20211;-81
2020/12/16 02:26:32;;;;;;;30.80;23.15;;;10.80;99.90;;;;;;5065289;28;20668;-81
2020/12/16 02:28:59;;;;;;;35.88;26.27;;;10.90;99.90;;;;;;5064527;28;20327;-80
2020/12/16 02:31:28;;;;;;;35.85;25.45;;;10.80;99.90;;;;;;5065108;28;20243;-81
2020/12/16 02:33:56;;;;;;;33.00;24.65;;;10.80;99.90;;;;;;5063885;28;20204;-79
2020/12/16 02:36:22;;;;;;;32.15;23.17;;;10.90;99.90;;;;;;5064318;28;20234;-79
2020/12/16 02:38:51;;;;;;;36.53;25.67;;;10.90;99.90;;;;;;5064109;28;20199;-80
2020/12/16 02:41:18;;;;;;;42.38;29.00;;;10.90;99.90;;;;;;5064426;28;20258;-80
2020/12/16 02:43:45;;;;;;;43.05;28.08;;;10.90;99.90;;;;;;5063274;28;20196;-80
2020/12/16 02:46:12;;;;;;;40.10;27.88;;;10.90;99.90;;;;;;5063736;28;20208;-80
2020/12/16 02:48:38;;;;;;;34.65;23.85;;;10.80;99.90;;;;;;5063872;28;20223;-78
2020/12/16 02:51:05;;;;;;;47.60;31.85;;;10.70;99.90;;;;;;5064017;28;20223;-81
2020/12/16 02:53:32;;;;;;;37.75;27.80;;;10.60;99.90;;;;;;5064043;28;20211;-79
2020/12/16 02:55:58;;;;;;;39.15;27.63;;;10.50;99.90;;;;;;5064005;28;20211;-80
2020/12/16 02:58:26;;;;;;;43.88;28.75;;;10.70;99.90;;;;;;5064294;28;20199;-80
2020/12/16 03:00:53;;;;;;;36.88;25.75;;;10.60;99.90;;;;;;5064177;28;20288;-80
2020/12/16 03:03:20;;;;;;;40.08;28.05;;;10.70;99.90;;;;;;5064572;28;20206;-80
2020/12/16 03:05:47;;;;;;;39.45;28.67;;;10.70;99.90;;;;;;5064445;28;20204;-80
2020/12/16 03:08:13;;;;;;;39.47;26.67;;;10.60;99.90;;;;;;5064465;28;20210;-80
2020/12/16 05:43:01;;;;;;;28.45;18.10;;;9.90;99.90;;;;;;5093180;28;20213;-82
2020/12/16 05:45:32;;;;;;;28.52;18.08;;;9.90;99.90;;;;;;5105187;28;20235;-83
2020/12/16 05:59:27;;;;;;;23.05;16.58;;;10.00;99.90;;;;;;5066756;28;20252;-84
2020/12/16 06:02:13;;;;;;;27.45;19.30;;;9.90;99.90;;;;;;5111992;28;20217;-82
2020/12/16 06:04:40;;;;;;;26.55;17.20;;;9.90;99.90;;;;;;5118633;28;20226;-83
2020/12/16 06:07:08;;;;;;;25.92;18.42;;;9.70;99.90;;;;;;5118690;28;20202;-81
2020/12/16 06:09:34;;;;;;;29.27;17.55;;;9.80;99.90;;;;;;5118654;28;20249;-81
2020/12/16 06:12:06;;;;;;;25.48;18.38;;;9.70;99.90;;;;;;5113294;28;20281;-82
2020/12/16 06:14:34;;;;;;;25.45;17.38;;;9.60;99.90;;;;;;5107104;28;20198;-83
2020/12/16 06:17:11;;;;;;;27.77;19.13;;;9.50;99.90;;;;;;5106731;28;20210;-82
2020/12/16 06:19:43;;;;;;;24.45;16.98;;;9.40;99.90;;;;;;5107736;28;20221;-83
2020/12/16 06:22:10;;;;;;;27.33;19.02;;;9.30;99.90;;;;;;5108410;28;20190;-82
2020/12/16 06:24:42;;;;;;;30.27;22.02;;;9.30;99.90;;;;;;5111226;28;20260;-83
2020/12/16 06:27:11;;;;;;;35.22;20.67;;;9.20;99.90;;;;;;5113000;28;20195;-83
2020/12/16 06:29:44;;;;;;;27.88;19.15;;;9.10;99.90;;;;;;5114300;28;20224;-82
2020/12/16 06:32:20;;;;;;;26.92;19.48;;;9.00;99.90;;;;;;5114837;28;20239;-82
2020/12/16 06:34:47;;;;;;;27.20;18.40;;;9.10;99.90;;;;;;5114399;28;20255;-82
2020/12/16 06:37:15;;;;;;;28.88;19.95;;;9.00;99.90;;;;;;5115639;28;20269;-85
2020/12/16 06:39:42;;;;;;;28.70;18.35;;;8.90;99.90;;;;;;5114816;28;20221;-83
2020/12/16 06:42:09;;;;;;;34.08;24.55;;;8.90;99.90;;;;;;5116361;28;20265;-83
2020/12/16 06:44:35;;;;;;;37.15;21.92;;;8.70;99.90;;;;;;5114910;28;20202;-81
2020/12/16 06:47:04;;;;;;;22.63;16.65;;;8.70;99.90;;;;;;5110418;28;20186;-82
2020/12/16 06:49:41;;;;;;;29.90;20.38;;;8.60;99.90;;;;;;5110579;28;20226;-82
2020/12/16 06:52:11;;;;;;;27.50;17.33;;;8.60;99.90;;;;;;5113683;28;20197;-82
2020/12/16 06:54:41;;;;;;;41.67;19.40;;;8.50;99.90;;;;;;5087783;28;20206;-83
2020/12/16 06:57:19;;;;;;;27.67;19.75;;;8.50;99.90;;;;;;5085480;28;20214;-84
2020/12/16 06:59:51;;;;;;;25.95;16.77;;;8.50;99.90;;;;;;5085100;28;20240;-83
2020/12/16 07:02:26;;;;;;;28.08;17.10;;;8.40;99.90;;;;;;5086717;28;20201;-82
2020/12/16 07:04:54;;;;;;;23.08;16.15;;;8.40;99.90;;;;;;5083350;28;20196;-84
2020/12/16 07:07:43;;;;;;;25.15;18.70;;;8.30;99.90;;;;;;5093481;28;20192;-83
2020/12/16 07:10:41;;;;;;;28.27;18.67;;;8.20;99.90;;;;;;5097322;28;20243;-84
2020/12/16 07:13:16;;;;;;;25.55;17.02;;;8.20;99.90;;;;;;5097779;28;20202;-83
2020/12/16 07:15:48;;;;;;;26.60;17.08;;;8.10;99.90;;;;;;5095494;22;20695;-72
2020/12/16 07:18:27;;;;;;;32.03;20.35;;;8.10;99.90;;;;;;5064517;28;20202;-71
2020/12/16 07:21:14;;;;;;;36.05;21.02;;;8.00;99.90;;;;;;5054855;28;20186;-71
2020/12/16 07:23:44;;;;;;;33.50;20.38;;;7.90;99.90;;;;;;5055163;28;20199;-71
2020/12/16 07:26:12;;;;;;;35.33;23.10;;;8.00;99.90;;;;;;5054773;28;20224;-72
2020/12/16 07:28:39;;;;;;;33.47;22.60;;;8.00;99.90;;;;;;5054093;28;20276;-71
2020/12/16 07:31:07;;;;;;;46.45;26.05;;;7.90;99.90;;;;;;5054584;28;20217;-71
2020/12/16 07:33:34;;;;;;;40.97;27.00;;;7.90;99.90;;;;;;5054271;28;20217;-72
2020/12/16 07:36:02;;;;;;;38.00;24.63;;;7.90;99.90;;;;;;5055549;28;20586;-70
2020/12/16 07:38:29;;;;;;;33.40;22.42;;;7.90;99.90;;;;;;5053855;28;20206;-70
2020/12/16 07:40:57;;;;;;;44.50;25.40;;;7.90;99.90;;;;;;5061793;28;20683;-71
2020/12/16 07:43:24;;;;;;;39.78;26.33;;;7.90;99.90;;;;;;5072072;28;20206;-69
2020/12/16 07:46:02;;;;;;;40.47;27.80;;;7.90;99.90;;;;;;5071899;28;20233;-71
2020/12/16 07:48:29;;;;;;;40.50;25.48;;;7.90;99.90;;;;;;5053370;28;20214;-69
2020/12/16 07:51:07;;;;;;;46.97;27.33;;;7.90;99.90;;;;;;5053789;28;20214;-70
2020/12/16 07:53:35;;;;;;;44.88;28.83;;;7.90;99.90;;;;;;5054012;28;20212;-70
2020/12/16 07:56:03;;;;;;;55.17;30.20;;;7.80;99.90;;;;;;5053505;28;20226;-70
2020/12/16 07:58:32;;;;;;;42.88;28.05;;;7.90;99.90;;;;;;5052677;28;20195;-70
2020/12/16 08:01:13;;;;;;;51.03;29.67;;;7.80;99.90;;;;;;5053706;28;20201;-72
2020/12/16 08:03:41;;;;;;;52.00;31.42;;;7.80;99.90;;;;;;5054247;28;20207;-72
2020/12/16 08:06:09;;;;;;;47.53;29.15;;;7.80;99.90;;;;;;5054004;28;20235;-73
2020/12/16 08:08:44;;;;;;;44.28;28.65;;;7.80;99.90;;;;;;5053558;28;20201;-72
2020/12/16 08:11:16;;;;;;;48.58;30.08;;;7.80;99.90;;;;;;5054039;28;20202;-72
2020/12/16 08:13:43;;;;;;;39.50;26.10;;;7.80;99.90;;;;;;5053808;28;20212;-72
2020/12/16 08:16:09;;;;;;;41.22;26.05;;;7.80;99.90;;;;;;5069407;28;20275;-73
2020/12/16 08:18:38;;;;;;;34.63;22.60;;;7.80;99.90;;;;;;5065697;28;20516;-73
2020/12/16 08:21:19;;;;;;;47.83;26.13;;;7.70;99.90;;;;;;5073883;28;20298;-73
2020/12/16 08:23:46;;;;;;;47.78;26.90;;;7.60;99.90;;;;;;5056508;28;20243;-75
2020/12/16 08:26:13;;;;;;;58.53;28.02;;;7.30;99.90;;;;;;5073664;28;20235;-73
2020/12/16 08:28:40;;;;;;;41.13;24.63;;;7.20;99.90;;;;;;5074147;28;20214;-73
2020/12/16 08:31:06;;;;;;;80.85;27.83;;;7.10;99.90;;;;;;5074608;28;20208;-73
2020/12/16 08:33:33;;;;;;;102.18;30.65;;;7.00;99.90;;;;;;5073538;28;20585;-73
2020/12/16 08:36:04;;;;;;;56.97;24.40;;;6.90;99.90;;;;;;5073248;28;20235;-75
2020/12/16 08:38:35;;;;;;;67.47;23.95;;;6.90;99.90;;;;;;5071447;28;20196;-74
2020/12/16 08:41:02;;;;;;;63.53;22.95;;;6.80;99.90;;;;;;5073410;28;20678;-74
2020/12/16 08:43:31;;;;;;;69.80;25.15;;;6.70;99.90;;;;;;5072375;28;20187;-74
2020/12/16 08:46:03;;;;;;;50.92;22.10;;;6.70;99.90;;;;;;5072934;28;20349;-75
2020/12/16 08:48:38;;;;;;;37.63;17.83;;;6.70;99.90;;;;;;5064469;28;20211;-75
2020/12/16 08:51:07;;;;;;;60.17;22.63;;;6.70;99.90;;;;;;5055404;28;20261;-75
2020/12/16 08:53:52;;;;;;;78.45;23.80;;;6.70;99.90;;;;;;5073184;28;20216;-75
2020/12/16 08:56:27;;;;;;;68.13;25.00;;;6.70;99.90;;;;;;5073299;28;20229;-74
2020/12/16 08:59:06;;;;;;;56.13;20.90;;;6.70;99.90;;;;;;5069549;28;20222;-75
2020/12/16 09:01:34;;;;;;;131.15;37.25;;;6.80;99.90;;;;;;5073072;28;20229;-75
2020/12/16 09:04:03;;;;;;;73.97;24.98;;;6.70;99.90;;;;;;5073069;28;20212;-74
2020/12/16 09:06:30;;;;;;;84.53;27.25;;;6.80;99.90;;;;;;5072772;28;20637;-74
2020/12/16 09:08:57;;;;;;;57.58;26.38;;;6.70;99.90;;;;;;5072746;28;20200;-73
2020/12/16 09:11:24;;;;;;;33.05;17.27;;;6.70;99.90;;;;;;5089328;22;20230;-84
2020/12/16 09:13:57;;;;;;;60.67;21.25;;;6.70;99.90;;;;;;5054624;28;20254;-83
2020/12/16 09:16:26;;;;;;;65.90;24.52;;;6.70;99.90;;;;;;5059161;28;20231;-83
2020/12/16 09:18:53;;;;;;;58.15;26.90;;;6.70;99.90;;;;;;5060847;28;20257;-83
2020/12/16 09:21:32;;;;;;;86.55;28.50;;;6.70;99.90;;;;;;5061802;28;20228;-83
2020/12/16 09:23:59;;;;;;;38.75;19.10;;;6.60;99.90;;;;;;5061633;28;20207;-83
2020/12/16 09:26:37;;;;;;;49.80;25.13;;;6.60;99.90;;;;;;5061268;28;20646;-83
2020/12/16 09:29:21;;;;;;;32.40;20.63;;;6.80;99.90;;;;;;5068007;28;20692;-82
2020/12/16 09:31:49;;;;;;;47.95;25.83;;;7.00;99.90;;;;;;5060005;28;20260;-83
2020/12/16 09:34:18;;;;;;;55.60;22.60;;;7.00;99.90;;;;;;5060309;28;20615;-83
2020/12/16 09:36:45;;;;;;;56.65;25.05;;;7.20;99.90;;;;;;5061575;28;20291;-83
2020/12/16 09:39:19;;;;;;;29.83;19.63;;;7.20;99.90;;;;;;5062540;28;20222;-82
2020/12/16 09:41:51;;;;;;;42.97;22.45;;;7.30;99.90;;;;;;5064379;28;20693;-83
2020/12/16 09:44:25;;;;;;;33.80;19.25;;;7.40;99.90;;;;;;5061824;28;20210;-83
2020/12/16 09:46:51;;;;;;;29.52;18.60;;;7.40;99.90;;;;;;5060373;28;20214;-83
2020/12/16 09:49:19;;;;;;;46.45;25.20;;;7.60;99.90;;;;;;5060572;28;20213;-82
2020/12/16 09:51:46;;;;;;;54.58;25.40;;;7.70;99.90;;;;;;5060317;28;20229;-83
2020/12/16 09:54:27;;;;;;;54.63;25.25;;;7.70;99.90;;;;;;5062307;28;20647;-83
2020/12/16 09:56:53;;;;;;;47.13;26.23;;;7.70;99.90;;;;;;5061522;28;20217;-84
2020/12/16 09:59:20;;;;;;;53.15;28.15;;;7.70;99.90;;;;;;5061794;28;20226;-83
2020/12/16 10:01:49;;;;;;;48.60;23.15;;;7.80;99.90;;;;;;5059674;28;20289;-83
2020/12/16 10:04:16;;;;;;;50.22;26.00;;;7.90;99.90;;;;;;5061516;28;20226;-83
2020/12/16 10:06:42;;;;;;;61.85;25.60;;;8.00;99.90;;;;;;5062739;28;20221;-83
2020/12/16 10:09:09;;;;;;;45.63;26.40;;;8.00;99.90;;;;;;5060744;28;20207;-82
2020/12/16 10:11:37;;;;;;;35.15;22.77;;;8.00;99.90;;;;;;5061516;28;20242;-84
2020/12/16 10:14:04;;;;;;;57.97;26.25;;;7.90;99.90;;;;;;5061429;28;20209;-83
2020/12/16 10:16:32;;;;;;;30.17;20.83;;;8.00;99.90;;;;;;5048707;28;20229;-83
2020/12/16 10:19:00;;;;;;;37.92;22.92;;;8.10;99.90;;;;;;5062604;28;20269;-82
2020/12/16 10:21:26;;;;;;;40.50;26.20;;;8.20;99.90;;;;;;5063974;28;20291;-82
2020/12/16 10:23:53;;;;;;;63.03;28.33;;;8.30;99.90;;;;;;5069287;28;20203;-84
2020/12/16 10:26:19;;;;;;;37.60;24.35;;;8.40;99.90;;;;;;5069903;28;20203;-83
2020/12/16 10:28:47;;;;;;;54.05;30.20;;;8.40;99.90;;;;;;5070034;28;20207;-82
2020/12/16 10:31:13;;;;;;;55.13;32.35;;;8.30;99.90;;;;;;5070799;28;20210;-82
2020/12/16 10:33:39;;;;;;;35.00;23.65;;;8.40;99.90;;;;;;5072761;28;20188;-82
2020/12/16 10:36:06;;;;;;;48.33;29.17;;;8.40;99.90;;;;;;5074322;28;20237;-82
2020/12/16 10:38:33;;;;;;;48.03;28.67;;;8.50;99.90;;;;;;5074272;28;20206;-84
2020/12/16 10:41:13;;;;;;;52.17;29.83;;;8.60;99.90;;;;;;5076021;28;20235;-83
2020/12/16 10:43:39;;;;;;;56.47;35.08;;;8.50;99.90;;;;;;5074199;28;20191;-83
2020/12/16 10:46:08;;;;;;;57.58;33.22;;;8.50;99.90;;;;;;5071149;28;20198;-82
2020/12/16 10:48:35;;;;;;;35.95;26.20;;;8.70;99.90;;;;;;5074112;28;20242;-83
2020/12/16 10:51:02;;;;;;;38.05;23.73;;;8.90;99.90;;;;;;5070481;28;20226;-82
2020/12/16 10:53:29;;;;;;;34.92;26.10;;;8.80;99.90;;;;;;5070788;28;20215;-83
2020/12/16 10:55:56;;;;;;;35.63;22.77;;;9.00;99.90;;;;;;5071601;28;20203;-83
2020/12/16 10:58:24;;;;;;;37.85;25.88;;;9.20;99.90;;;;;;5069576;28;20198;-83
2020/12/16 11:00:51;;;;;;;44.55;29.40;;;9.20;99.90;;;;;;5067831;28;20246;-83
2020/12/16 11:03:17;;;;;;;37.70;25.88;;;9.10;99.90;;;;;;5068307;28;20211;-83
2020/12/16 11:05:45;;;;;;;44.70;29.30;;;9.30;99.90;;;;;;5069792;28;20250;-83
2020/12/16 11:08:11;;;;;;;30.80;24.52;;;9.40;99.90;;;;;;5069902;28;20207;-83
2020/12/16 11:10:38;;;;;;;27.05;21.40;;;9.50;99.90;;;;;;5068700;28;20325;-82
2020/12/16 11:13:05;;;;;;;34.08;24.00;;;9.80;99.90;;;;;;5069982;28;20226;-82
2020/12/16 11:15:33;;;;;;;33.22;25.38;;;9.80;99.90;;;;;;5088664;28;20195;-84
2020/12/16 11:17:59;;;;;;;35.65;24.80;;;9.70;99.90;;;;;;5069544;28;20222;-83
2020/12/16 11:20:26;;;;;;;29.98;23.23;;;9.70;99.90;;;;;;5064491;28;20223;-82
2020/12/16 11:22:52;;;;;;;34.83;26.23;;;9.80;99.90;;;;;;5066657;28;20214;-83
2020/12/16 11:25:19;;;;;;;28.70;22.77;;;9.80;99.90;;;;;;5061381;28;20318;-83
2020/12/16 11:27:45;;;;;;;30.40;24.60;;;9.70;99.90;;;;;;5060795;28;20211;-83
2020/12/16 11:30:12;;;;;;;35.53;26.42;;;9.70;99.90;;;;;;5061045;28;20207;-83
2020/12/16 11:32:39;;;;;;;29.13;23.85;;;9.70;99.90;;;;;;5064533;28;20204;-83
2020/12/16 11:35:06;;;;;;;37.65;27.67;;;9.80;99.90;;;;;;5063193;28;20216;-83
2020/12/16 11:37:33;;;;;;;28.05;21.00;;;9.60;99.90;;;;;;5061453;28;20249;-84
2020/12/16 11:40:01;;;;;;;27.15;22.38;;;9.60;99.90;;;;;;5063369;28;20382;-83
2020/12/16 11:42:28;;;;;;;27.15;22.40;;;9.50;99.90;;;;;;5061767;28;20725;-83
2020/12/16 11:44:54;;;;;;;28.25;21.98;;;9.60;99.90;;;;;;5062879;28;20200;-83
2020/12/16 11:47:21;;;;;;;36.30;25.58;;;9.70;99.90;;;;;;5064316;28;20207;-82
2020/12/16 11:49:48;;;;;;;31.02;25.08;;;9.60;99.90;;;;;;5067075;28;20196;-83
2020/12/16 11:52:15;;;;;;;37.05;32.40;;;9.50;99.90;;;;;;5062354;28;20285;-83
2020/12/16 11:54:41;;;;;;;39.92;35.13;;;9.50;99.90;;;;;;5061475;28;20203;-82
2020/12/16 11:57:08;;;;;;;58.70;52.72;;;9.40;99.90;;;;;;5062847;28;20183;-83
2020/12/16 11:59:34;;;;;;;29.55;25.50;;;9.40;99.90;;;;;;5062095;28;20223;-83
2020/12/16 12:02:02;;;;;;;31.25;25.48;;;9.50;99.90;;;;;;5061065;28;20261;-84
2020/12/16 12:04:29;;;;;;;32.55;25.15;;;9.50;99.90;;;;;;5065141;28;20275;-83
2020/12/16 12:06:57;;;;;;;29.17;24.48;;;9.50;99.90;;;;;;5066728;28;20337;-84
2020/12/16 12:09:24;;;;;;;32.13;23.30;;;9.50;99.90;;;;;;5061869;28;20206;-82
2020/12/16 12:11:52;;;;;;;54.08;45.40;;;9.50;99.90;;;;;;5060834;28;20636;-83
2020/12/16 12:14:19;;;;;;;31.70;25.45;;;9.50;99.90;;;;;;5062549;28;20234;-83
2020/12/16 12:16:47;;;;;;;31.55;28.05;;;9.60;99.90;;;;;;5067718;28;20187;-83
2020/12/16 12:19:14;;;;;;;30.95;26.60;;;9.70;99.90;;;;;;5063862;28;20219;-85
2020/12/16 12:21:40;;;;;;;29.10;23.52;;;9.80;99.90;;;;;;5058720;28;20290;-82
2020/12/16 12:24:08;;;;;;;25.25;22.10;;;9.70;99.90;;;;;;5059266;28;20222;-83
2020/12/16 12:26:34;;;;;;;31.52;23.75;;;9.80;99.90;;;;;;5059352;28;20280;-83
2020/12/16 12:29:01;;;;;;;27.20;21.52;;;9.60;99.90;;;;;;5060777;28;20207;-83
2020/12/16 12:31:28;;;;;;;30.88;26.38;;;9.70;99.90;;;;;;5061345;28;20227;-83
2020/12/16 12:33:54;;;;;;;35.28;27.70;;;9.70;99.90;;;;;;5061759;28;20303;-83
2020/12/16 12:36:21;;;;;;;36.25;27.17;;;9.60;99.90;;;;;;5065222;28;20227;-83
2020/12/16 12:38:47;;;;;;;24.92;21.88;;;9.60;99.90;;;;;;5064777;28;20290;-83
2020/12/16 12:41:16;;;;;;;25.50;22.38;;;9.60;99.90;;;;;;5059568;28;20239;-84
2020/12/16 12:43:42;;;;;;;29.77;24.05;;;9.70;99.90;;;;;;5060973;28;20226;-83
2020/12/16 12:46:09;;;;;;;25.85;23.10;;;9.80;99.90;;;;;;5059288;28;20215;-83
2020/12/16 12:48:36;;;;;;;36.22;27.17;;;9.90;99.90;;;;;;5059288;28;20683;-83
2020/12/16 12:51:04;;;;;;;25.13;20.40;;;9.80;99.90;;;;;;5060064;28;20219;-83
2020/12/16 12:53:30;;;;;;;25.10;22.25;;;10.00;99.90;;;;;;5058755;28;20199;-83
2020/12/16 12:55:57;;;;;;;25.13;20.80;;;10.00;99.90;;;;;;5059979;28;20199;-83
2020/12/16 12:58:24;;;;;;;28.15;22.17;;;10.00;99.90;;;;;;5059187;28;20207;-83
2020/12/16 13:00:51;;;;;;;26.42;22.67;;;10.00;99.90;;;;;;5058726;28;20259;-84
2020/12/16 13:03:17;;;;;;;21.83;19.38;;;10.20;99.90;;;;;;5059886;28;20204;-83
2020/12/16 13:05:44;;;;;;;30.75;24.30;;;10.30;99.90;;;;;;5059493;28;20208;-83
2020/12/16 13:08:10;;;;;;;30.65;24.30;;;10.40;99.90;;;;;;5060329;28;20656;-83
2020/12/16 13:10:37;;;;;;;28.92;24.27;;;10.40;99.90;;;;;;5064894;28;20337;-84
2020/12/16 13:13:03;;;;;;;28.92;23.98;;;10.50;99.90;;;;;;5060691;28;20211;-84
2020/12/16 13:15:31;;;;;;;24.50;20.58;;;10.50;99.90;;;;;;5061274;28;20207;-84
2020/12/16 13:17:57;;;;;;;23.13;20.08;;;10.50;99.90;;;;;;5061590;28;20664;-83
2020/12/16 13:20:24;;;;;;;28.08;23.42;;;10.60;99.90;;;;;;5063987;28;20233;-83
2020/12/16 13:22:51;;;;;;;27.98;21.95;;;10.70;99.90;;;;;;5063410;28;20214;-83
2020/12/16 13:25:18;;;;;;;34.25;28.60;;;10.70;99.90;;;;;;5061648;28;20200;-83
2020/12/16 13:27:44;;;;;;;30.67;27.48;;;10.70;99.90;;;;;;5061988;28;20203;-83
2020/12/16 13:30:11;;;;;;;24.23;21.65;;;10.80;99.90;;;;;;5065240;28;20209;-83
2020/12/16 13:32:39;;;;;;;23.20;20.77;;;10.90;99.90;;;;;;5067281;28;20260;-84
2020/12/16 13:35:05;;;;;;;22.20;19.30;;;10.90;99.90;;;;;;5060278;28;20282;-84
2020/12/16 13:37:32;;;;;;;24.05;19.75;;;11.00;99.90;;;;;;5060353;28;20208;-84
2020/12/16 13:39:58;;;;;;;25.10;21.90;;;10.90;99.90;;;;;;5063239;28;20223;-82
2020/12/16 13:42:25;;;;;;;26.75;23.55;;;10.80;99.90;;;;;;5067367;28;20242;-82
2020/12/16 13:44:52;;;;;;;24.65;21.95;;;10.70;99.90;;;;;;5068671;28;20206;-83
2020/12/16 13:47:18;;;;;;;30.15;21.45;;;10.60;99.90;;;;;;5064920;28;20206;-83
2020/12/16 13:49:45;;;;;;;25.45;22.20;;;10.40;99.90;;;;;;5061147;28;20196;-84
2020/12/16 13:52:13;;;;;;;28.00;23.52;;;10.40;99.90;;;;;;5060547;28;20250;-83
2020/12/16 13:54:40;;;;;;;27.42;24.40;;;10.40;99.90;;;;;;5061120;28;20214;-84
2020/12/16 13:57:07;;;;;;;25.42;22.38;;;10.30;99.90;;;;;;5060418;28;20212;-84
2020/12/16 13:59:33;;;;;;;27.05;21.05;;;10.30;99.90;;;;;;5060006;28;20219;-84
2020/12/16 14:02:01;;;;;;;22.88;20.42;;;10.30;99.90;;;;;;5059957;28;20231;-83
2020/12/16 14:04:27;;;;;;;23.98;20.92;;;10.20;99.90;;;;;;5061743;28;20226;-82
2020/12/16 14:06:54;;;;;;;26.35;22.23;;;10.30;99.90;;;;;;5063201;28;20207;-83
2020/12/16 14:09:22;;;;;;;29.17;24.05;;;10.40;99.90;;;;;;5068328;28;20215;-83
2020/12/16 14:11:51;;;;;;;23.02;20.60;;;10.30;99.90;;;;;;5067125;28;20231;-83
2020/12/16 14:14:17;;;;;;;29.70;26.60;;;10.30;99.90;;;;;;5067363;28;20211;-83
2020/12/16 14:16:44;;;;;;;26.95;22.85;;;10.20;99.90;;;;;;5070203;28;20222;-83
2020/12/16 14:19:11;;;;;;;27.45;24.25;;;10.20;99.90;;;;;;5070430;28;20200;-83
2020/12/16 14:21:37;;;;;;;27.23;23.27;;;10.20;99.90;;;;;;5071060;28;20250;-83
2020/12/16 14:24:06;;;;;;;32.80;26.23;;;10.10;99.90;;;;;;5069636;28;20239;-83
2020/12/16 14:26:34;;;;;;;35.67;26.05;;;10.00;99.90;;;;;;5068655;28;20218;-84
2020/12/16 14:29:00;;;;;;;22.38;19.95;;;10.00;99.90;;;;;;5072947;28;20257;-84
2020/12/16 14:31:27;;;;;;;30.58;25.30;;;9.90;99.90;;;;;;5075542;28;20243;-83
2020/12/16 14:33:53;;;;;;;34.70;26.05;;;9.90;99.90;;;;;;5066824;28;20203;-82
2020/12/16 14:36:20;;;;;;;30.10;23.55;;;9.90;99.90;;;;;;5065915;28;20207;-83
2020/12/16 14:38:47;;;;;;;29.77;25.52;;;9.90;99.90;;;;;;5063375;28;20737;-83
2020/12/16 14:41:14;;;;;;;29.75;25.45;;;10.00;99.90;;;;;;5068483;28;20295;-83
2020/12/16 14:43:42;;;;;;;35.30;27.77;;;10.00;99.90;;;;;;5065087;28;20214;-82
2020/12/16 14:46:08;;;;;;;37.55;28.25;;;10.00;99.90;;;;;;5064687;28;20207;-82
2020/12/16 14:48:35;;;;;;;35.58;28.05;;;9.90;99.90;;;;;;5068177;28;20211;-83
2020/12/16 14:51:02;;;;;;;50.28;31.33;;;9.90;99.90;;;;;;5067859;28;20292;-82
2020/12/16 14:53:33;;;;;;;39.17;29.00;;;9.90;99.90;;;;;;5071626;28;20415;-82
2020/12/16 14:56:00;;;;;;;35.75;28.30;;;9.80;99.90;;;;;;5069749;28;20207;-82
2020/12/16 14:58:28;;;;;;;50.35;43.53;;;9.70;99.90;;;;;;5070305;28;20235;-83
2020/12/16 15:00:54;;;;;;;33.80;30.00;;;9.80;99.90;;;;;;5068441;28;20257;-83
2020/12/16 15:03:21;;;;;;;31.40;25.90;;;9.80;99.90;;;;;;5064901;28;20238;-82
2020/12/16 15:05:48;;;;;;;38.13;31.80;;;9.70;99.90;;;;;;5063670;28;20214;-83
2020/12/16 15:08:14;;;;;;;38.40;31.52;;;9.60;99.90;;;;;;5070665;28;20207;-84
2020/12/16 15:10:41;;;;;;;36.10;28.88;;;9.50;99.90;;;;;;5063236;28;20251;-83
2020/12/16 15:13:07;;;;;;;34.17;27.23;;;9.40;99.90;;;;;;5088418;22;20215;-80
2020/12/16 15:15:35;;;;;;;35.97;28.83;;;9.30;99.90;;;;;;5085962;28;20191;-80
2020/12/16 15:18:01;;;;;;;41.03;30.20;;;9.30;99.90;;;;;;5079205;28;20255;-79
2020/12/16 15:20:29;;;;;;;35.30;29.77;;;9.20;99.90;;;;;;5073360;28;20261;-81
2020/12/16 15:22:55;;;;;;;40.60;31.75;;;9.20;99.90;;;;;;5070456;28;20223;-78